createdAt,value
2023-07-23T00:01:07.415Z,100891.00
2023-07-23T00:06:10.319Z,100875.97
2023-07-23T00:11:13.404Z,100883.00
2023-07-23T00:16:17.815Z,100867.09
2023-07-23T00:21:20.861Z,100858.28
2023-07-23T00:26:23.949Z,100854.81
2023-07-23T00:31:28.468Z,100845.25
2023-07-23T00:36:31.926Z,100827.66
2023-07-23T00:41:35.349Z,100822.28
2023-07-23T00:46:40.479Z,100813.56
2023-07-23T00:51:43.761Z,100809.25
2023-07-23T00:56:49.082Z,100801.28
2023-07-23T01:01:53.457Z,100779.13
2023-07-23T01:06:59.174Z,100794.28
2023-07-23T01:12:04.239Z,100782.78
2023-07-23T01:17:09.837Z,100771.31
2023-07-23T01:22:14.295Z,100766.06
2023-07-23T01:27:17.236Z,100765.13
2023-07-23T01:32:20.260Z,100752.66
2023-07-23T01:37:25.521Z,100746.31
2023-07-23T01:42:29.172Z,100744.53
2023-07-23T01:47:32.372Z,100732.06
2023-07-23T01:52:36.813Z,100721.38
2023-07-23T01:57:40.091Z,100722.34
2023-07-23T02:02:43.353Z,100709.28
2023-07-23T02:07:48.117Z,100709.38
2023-07-23T02:12:51.323Z,100713.88
2023-07-23T02:17:54.482Z,100699.75
2023-07-23T02:22:59.211Z,100688.28
2023-07-23T02:28:03.342Z,100687.47
2023-07-23T02:33:06.599Z,100670.69
2023-07-23T02:38:11.016Z,100652.13
2023-07-23T02:43:14.280Z,100661.88
2023-07-23T02:48:17.394Z,100648.66
2023-07-23T02:53:22.322Z,100634.41
2023-07-23T02:58:25.316Z,100634.41
2023-07-23T03:03:28.405Z,100617.53
2023-07-23T03:08:35.461Z,100629.16
2023-07-23T03:13:38.544Z,100601.75
2023-07-23T03:18:41.744Z,100607.97
2023-07-23T03:23:46.620Z,100588.47
2023-07-23T03:28:49.642Z,100589.38
2023-07-23T03:33:52.596Z,100600.88
2023-07-23T03:38:57.253Z,100599.09
2023-07-23T03:44:00.413Z,100602.59
2023-07-23T03:49:03.458Z,100599.97
2023-07-23T03:54:07.819Z,100594.66
2023-07-23T03:59:10.847Z,100595.56
2023-07-23T04:04:13.964Z,100588.44
2023-07-23T04:09:18.474Z,100591.94
2023-07-23T04:14:21.888Z,100590.22
2023-07-23T04:19:25.312Z,100596.44
2023-07-23T04:24:29.875Z,100584.09
2023-07-23T04:29:33.224Z,100589.41
2023-07-23T04:34:36.471Z,100579.72
2023-07-23T04:39:40.882Z,100587.66
2023-07-23T04:44:44.301Z,100586.81
2023-07-23T04:49:47.543Z,100579.63
2023-07-23T04:54:52.054Z,100584.78
2023-07-23T04:59:55.010Z,100585.66
2023-07-23T05:04:58.072Z,100590.00
2023-07-23T05:10:02.479Z,100584.66
2023-07-23T05:15:13.736Z,100589.97
2023-07-23T05:20:17.224Z,100588.13
2023-07-23T05:25:21.785Z,100595.22
2023-07-23T05:30:24.921Z,100588.13
2023-07-23T05:35:28.012Z,100592.53
2023-07-23T05:40:37.270Z,100593.41
2023-07-23T05:45:40.707Z,100584.59
2023-07-23T05:50:43.774Z,100573.88
2023-07-23T05:55:48.253Z,100588.97
2023-07-23T06:00:51.354Z,100586.31
2023-07-23T06:05:54.534Z,100593.38
2023-07-23T06:10:58.950Z,100597.78
2023-07-23T06:16:02.031Z,100597.00
2023-07-23T06:21:05.594Z,100603.16
2023-07-23T06:26:12.112Z,100596.94
2023-07-23T06:31:15.652Z,100595.09
2023-07-23T06:36:18.737Z,100595.97
2023-07-23T06:41:23.135Z,100594.16
2023-07-23T06:46:26.345Z,100592.44
2023-07-23T06:51:29.742Z,100589.78
2023-07-23T06:56:35.186Z,100601.28
2023-07-23T07:01:38.328Z,100599.59
2023-07-23T07:06:41.467Z,100597.00
2023-07-23T07:11:45.968Z,100601.53
2023-07-23T07:16:49.099Z,100605.97
2023-07-23T07:21:52.273Z,100601.56
2023-07-23T07:26:56.911Z,100600.59
2023-07-23T07:32:00.007Z,100595.19
2023-07-23T07:37:03.488Z,100589.97
2023-07-23T07:42:08.738Z,100576.81
2023-07-23T07:47:12.020Z,100585.63
2023-07-23T07:52:15.165Z,100584.91
2023-07-23T07:57:20.395Z,100588.56
2023-07-23T08:02:24.279Z,100594.91
2023-07-23T08:07:27.881Z,100579.84
2023-07-23T08:12:33.312Z,100594.88
2023-07-23T08:17:37.443Z,100589.56
2023-07-23T08:22:41.504Z,100579.94
2023-07-23T08:27:52.184Z,100577.31
2023-07-23T08:32:56.809Z,100573.88
2023-07-23T08:38:00.740Z,100579.19
2023-07-23T08:43:49.540Z,100586.31
2023-07-23T08:49:06.742Z,100585.50
2023-07-23T08:54:12.133Z,100582.88
2023-07-23T08:59:16.828Z,100577.56
2023-07-23T09:04:19.869Z,100584.69
2023-07-23T09:09:23.274Z,100576.72
2023-07-23T09:14:27.687Z,100583.81
2023-07-23T09:19:30.891Z,100582.94
2023-07-23T09:24:35.340Z,100599.66
2023-07-23T09:29:42.938Z,100589.84
2023-07-23T09:34:48.338Z,100596.88
2023-07-23T09:39:56.095Z,100601.31
2023-07-23T09:45:03.438Z,100610.19
2023-07-23T09:50:07.919Z,100603.91
2023-07-23T09:55:13.774Z,100605.63
2023-07-23T10:00:18.964Z,100610.94
2023-07-23T10:05:22.192Z,100606.47
2023-07-23T10:10:25.237Z,100601.16
2023-07-23T10:15:31.093Z,100612.69
2023-07-23T10:20:34.892Z,100611.88
2023-07-23T10:25:41.359Z,100610.19
2023-07-23T10:30:46.781Z,100611.22
2023-07-23T10:36:00.849Z,100599.81
2023-07-23T10:41:04.865Z,100615.81
2023-07-23T10:46:10.556Z,100606.91
2023-07-23T10:51:15.962Z,100602.38
2023-07-23T10:56:28.040Z,100592.56
2023-07-23T11:01:36.982Z,100591.69
2023-07-23T11:06:42.723Z,100591.69
2023-07-23T11:11:45.859Z,100592.59
2023-07-23T11:16:52.245Z,100592.63
2023-07-23T11:21:57.618Z,100603.22
2023-07-23T11:27:02.761Z,100618.31
2023-07-23T11:32:08.868Z,100607.66
2023-07-23T11:37:12.295Z,100601.91
2023-07-23T11:42:19.005Z,100596.41
2023-07-23T11:47:23.395Z,100596.47
2023-07-23T11:52:27.012Z,100604.63
2023-07-23T11:57:30.258Z,100596.63
2023-07-23T12:02:36.500Z,100598.31
2023-07-23T12:07:39.630Z,100590.00
2023-07-23T12:12:45.595Z,100575.09
2023-07-23T12:17:52.591Z,100577.34
2023-07-23T12:22:57.845Z,100568.75
2023-07-23T12:28:01.637Z,100570.19
2023-07-23T12:33:06.322Z,100583.69
2023-07-23T12:38:09.365Z,100575.75
2023-07-23T12:43:12.776Z,100577.59
2023-07-23T12:48:17.262Z,100576.63
2023-07-23T12:53:20.434Z,100563.66
2023-07-23T12:58:23.659Z,100571.25
2023-07-23T13:03:28.255Z,100569.97
2023-07-23T13:08:31.436Z,100568.47
2023-07-23T13:13:34.453Z,100563.38
2023-07-23T13:18:38.896Z,100567.69
2023-07-23T13:23:42.233Z,100575.88
2023-07-23T13:28:47.986Z,100571.59
2023-07-23T13:33:52.681Z,100563.19
2023-07-23T13:38:55.756Z,100562.16
2023-07-23T13:44:01.443Z,100547.84
2023-07-23T13:49:07.262Z,100559.47
2023-07-23T13:54:11.373Z,100557.47
2023-07-23T13:59:14.811Z,100559.78
2023-07-23T14:04:19.517Z,100562.00
2023-07-23T14:09:22.998Z,100563.13
2023-07-23T14:14:26.095Z,100545.88
2023-07-23T14:19:30.797Z,100543.25
2023-07-23T14:24:34.028Z,100550.91
2023-07-23T14:29:37.546Z,100542.47
2023-07-23T14:34:43.156Z,100538.06
2023-07-23T14:39:46.361Z,100543.41
2023-07-23T14:44:49.628Z,100530.75
2023-07-23T14:49:54.062Z,100535.66
2023-07-23T14:54:57.313Z,100534.69
2023-07-23T15:00:00.624Z,100535.84
2023-07-23T15:05:06.143Z,100511.53
2023-07-23T15:10:10.200Z,100529.09
2023-07-23T15:15:14.930Z,100533.56
2023-07-23T15:20:19.958Z,100530.13
2023-07-23T15:25:24.517Z,100522.53
2023-07-23T15:30:27.705Z,100532.56
2023-07-23T15:35:32.273Z,100529.72
2023-07-23T15:40:35.589Z,100545.25
2023-07-23T15:45:39.752Z,100529.84
2023-07-23T15:50:44.224Z,100524.25
2023-07-23T15:55:47.298Z,100523.84
2023-07-23T16:00:50.463Z,100519.00
2023-07-23T16:05:54.987Z,100521.31
2023-07-23T16:10:58.143Z,100515.38
2023-07-23T16:16:01.552Z,100510.09
2023-07-23T16:21:06.003Z,100526.38
2023-07-23T16:26:10.078Z,100523.69
2023-07-23T16:31:13.396Z,100507.75
2023-07-23T16:36:19.567Z,100501.00
2023-07-23T16:41:22.779Z,100502.16
2023-07-23T16:46:25.988Z,100498.63
2023-07-23T16:51:31.527Z,100493.75
2023-07-23T16:56:34.880Z,100491.94
2023-07-23T17:01:38.140Z,100490.03
2023-07-23T17:06:43.957Z,100474.72
2023-07-23T17:11:48.238Z,100481.72
2023-07-23T17:16:51.406Z,100485.34
2023-07-23T17:21:56.132Z,100483.78
2023-07-23T17:26:59.290Z,100480.47
2023-07-23T17:32:02.779Z,100473.53
2023-07-23T17:37:08.033Z,100457.53
2023-07-23T17:42:11.104Z,100458.66
2023-07-23T17:47:14.184Z,100464.34
2023-07-23T17:52:20.852Z,100469.75
2023-07-23T17:57:24.674Z,100468.88
2023-07-23T18:02:28.124Z,100467.25
2023-07-23T18:07:32.572Z,100454.91
2023-07-23T18:12:35.738Z,100460.63
2023-07-23T18:17:38.800Z,100473.28
2023-07-23T18:22:43.314Z,100454.03
2023-07-23T18:27:46.497Z,100473.66
2023-07-23T18:32:49.651Z,100480.97
2023-07-23T18:37:54.759Z,100481.94
2023-07-23T18:42:57.865Z,100481.19
2023-07-23T18:48:00.987Z,100478.66
2023-07-23T18:53:05.707Z,100469.97
2023-07-23T18:58:09.789Z,100462.09
2023-07-23T19:03:13.434Z,100458.78
2023-07-23T19:08:18.269Z,100465.09
2023-07-23T19:13:21.499Z,100460.78
2023-07-23T19:18:24.923Z,100461.88
2023-07-23T19:23:29.497Z,100466.41
2023-07-23T19:28:32.682Z,100460.31
2023-07-23T19:33:36.201Z,100469.25
2023-07-23T19:38:40.834Z,100475.59
2023-07-23T19:43:44.079Z,100478.38
2023-07-23T19:48:47.136Z,100490.09
2023-07-23T19:53:51.703Z,100489.28
2023-07-23T19:58:54.939Z,100486.72
2023-07-23T20:03:58.112Z,100494.91
2023-07-23T20:09:06.918Z,100503.84
2023-07-23T20:14:10.037Z,100497.81
2023-07-23T20:19:13.252Z,100511.13
2023-07-23T20:24:18.033Z,100506.75
2023-07-23T20:29:22.801Z,100522.78
2023-07-23T20:34:26.914Z,100502.47
2023-07-23T20:39:32.343Z,100530.03
2023-07-23T20:44:39.157Z,100530.06
2023-07-23T20:49:44.112Z,100541.63
2023-07-23T20:54:48.571Z,100531.94
2023-07-23T20:59:51.821Z,100515.97
2023-07-23T21:04:54.982Z,100524.03
2023-07-23T21:09:59.378Z,100524.91
2023-07-23T21:15:02.628Z,100526.72
2023-07-23T21:20:06.385Z,100532.06
2023-07-23T21:25:10.987Z,100520.53
2023-07-23T21:30:14.220Z,100518.78
2023-07-23T21:35:20.496Z,100507.31
2023-07-23T21:40:25.133Z,100528.59
2023-07-23T21:45:28.476Z,100528.59
2023-07-23T21:50:31.611Z,100532.13
2023-07-23T21:55:37.343Z,100529.44
2023-07-23T22:00:40.848Z,100517.97
2023-07-23T22:05:43.930Z,100522.44
2023-07-23T22:10:48.453Z,100514.47
2023-07-23T22:15:53.558Z,100506.53
2023-07-23T22:20:56.573Z,100508.28
2023-07-23T22:26:01.400Z,100505.63
2023-07-23T22:31:04.426Z,100502.06
2023-07-23T22:36:07.692Z,100500.28
2023-07-23T22:41:12.488Z,100511.81
2023-07-23T22:46:15.928Z,100500.31
2023-07-23T22:51:19.110Z,100514.53
2023-07-23T22:56:23.507Z,100511.84
2023-07-23T23:01:26.856Z,100504.72
2023-07-23T23:06:32.015Z,100498.53
2023-07-23T23:11:37.263Z,100495.84
2023-07-23T23:16:40.590Z,100492.28
2023-07-23T23:21:43.682Z,100481.63
2023-07-23T23:26:48.126Z,100478.97
2023-07-23T23:31:51.288Z,100475.44
2023-07-23T23:36:55.894Z,100486.97
2023-07-23T23:42:00.443Z,100479.91
2023-07-23T23:47:03.415Z,100469.28
2023-07-23T23:52:09.183Z,100461.31
2023-07-23T23:57:13.662Z,100459.56
